weather.gov     
National Weather Service

Terminal Aerodrome Forecast
NWS Homepage
This page is being discontinued on March 12, 2014.
The same data is available at this site. Please update your bookmarks.
Thank you, and we apologize for the inconvenience.
Please send an email to SR-SRH.Webmaster@noaa.gov with any concerns.


Current Version
Previous Version:    01  02  03  04  05  06  07  08  09  10  11  12  13  14  15  16  17  18  19  20  21  22  23  24  25  26  27  28  29  30  
   31  32  33  34  35  36  37  38  39  40  41  42  43  44  45  46  47  48  49  50  51  52  53  54  55  56  57  58  59  60  
[Printable]
764
FTUS45 KBOU 230540
TAFDEN
TAF
KDEN 230540Z 2306/2412 28008KT P6SM SCT120 BKN160
      TEMPO 2306/2308 30010G15KT SCT080 BKN110
     FM230800 34015G25KT P6SM SCT060 BKN080
     FM230900 01020G34KT P6SM -SHSN SCT025 BKN040 OVC060
     FM231000 03014G22KT 5SM -SN BR SCT014 BKN020 OVC040
      TEMPO 2310/2314 1 1/2SM -SN BKN006 OVC012
     FM231500 32012KT P6SM SCT050 SCT070 OVC120
     FM231900 35020G34KT P6SM VCSH SCT060 BKN100
     FM240100 30013KT P6SM SCT090 BKN120
     FM240600 27010KT P6SM SCT100 BKN150=


764
FTUS45 KBOU 230540
TAFDEN
TAF
KDEN 230540Z 2306/2412 28008KT P6SM SCT120 BKN160
      TEMPO 2306/2308 30010G15KT SCT080 BKN110
     FM230800 34015G25KT P6SM SCT060 BKN080
     FM230900 01020G34KT P6SM -SHSN SCT025 BKN040 OVC060
     FM231000 03014G22KT 5SM -SN BR SCT014 BKN020 OVC040
      TEMPO 2310/2314 1 1/2SM -SN BKN006 OVC012
     FM231500 32012KT P6SM SCT050 SCT070 OVC120
     FM231900 35020G34KT P6SM VCSH SCT060 BKN100
     FM240100 30013KT P6SM SCT090 BKN120
     FM240600 27010KT P6SM SCT100 BKN150=




U.S. Dept. of Commerce
NOAA National Weather Service
1325 East West Highway
Silver Spring, MD 20910
E-mail: w-nws.webmaster@noaa.gov
Page last modified: May 16, 2007
NATIONAL WEATHER SERVICE: for Safety, for Work, for Fun - FOR LIFE